sensor_id;sensor_type;location;lat;lon;timestamp;P1;durP1;ratioP1;P2;durP2;ratioP2
14907;SDS011;7545;52.092;7.006;2022-10-16T00:01:19;3.95;;;2.33;;
14907;SDS011;7545;52.092;7.006;2022-10-16T00:03:47;2.38;;;1.33;;
14907;SDS011;7545;52.092;7.006;2022-10-16T00:06:13;2.13;;;1.40;;
14907;SDS011;7545;52.092;7.006;2022-10-16T00:08:40;3.90;;;1.58;;
14907;SDS011;7545;52.092;7.006;2022-10-16T00:11:07;3.42;;;1.60;;
14907;SDS011;7545;52.092;7.006;2022-10-16T00:13:55;3.08;;;1.65;;
14907;SDS011;7545;52.092;7.006;2022-10-16T00:16:23;4.22;;;1.45;;
14907;SDS011;7545;52.092;7.006;2022-10-16T00:18:49;2.38;;;1.55;;
14907;SDS011;7545;52.092;7.006;2022-10-16T00:21:16;2.55;;;1.83;;
14907;SDS011;7545;52.092;7.006;2022-10-16T00:23:44;2.17;;;1.70;;
14907;SDS011;7545;52.092;7.006;2022-10-16T00:26:11;4.38;;;2.03;;
14907;SDS011;7545;52.092;7.006;2022-10-16T00:28:39;2.42;;;1.63;;
14907;SDS011;7545;52.092;7.006;2022-10-16T00:31:06;4.68;;;1.85;;
14907;SDS011;7545;52.092;7.006;2022-10-16T00:33:36;3.85;;;2.05;;
14907;SDS011;7545;52.092;7.006;2022-10-16T00:36:03;4.75;;;2.33;;
14907;SDS011;7545;52.092;7.006;2022-10-16T00:38:29;4.25;;;2.08;;
14907;SDS011;7545;52.092;7.006;2022-10-16T00:40:55;4.20;;;2.05;;
14907;SDS011;7545;52.092;7.006;2022-10-16T00:43:41;6.63;;;2.58;;
14907;SDS011;7545;52.092;7.006;2022-10-16T00:49:12;4.28;;;2.10;;
14907;SDS011;7545;52.092;7.006;2022-10-16T00:51:42;3.75;;;2.38;;
14907;SDS011;7545;52.092;7.006;2022-10-16T00:54:17;7.40;;;3.00;;
14907;SDS011;7545;52.092;7.006;2022-10-16T00:56:51;6.18;;;2.58;;
14907;SDS011;7545;52.092;7.006;2022-10-16T00:59:20;3.88;;;3.10;;
14907;SDS011;7545;52.092;7.006;2022-10-16T01:01:55;3.72;;;3.08;;
14907;SDS011;7545;52.092;7.006;2022-10-16T01:04:22;4.35;;;2.92;;
14907;SDS011;7545;52.092;7.006;2022-10-16T01:14:47;5.30;;;2.60;;
14907;SDS011;7545;52.092;7.006;2022-10-16T01:17:48;3.97;;;2.60;;
14907;SDS011;7545;52.092;7.006;2022-10-16T01:29:01;4.72;;;2.25;;
14907;SDS011;7545;52.092;7.006;2022-10-16T01:31:34;3.45;;;2.72;;
14907;SDS011;7545;52.092;7.006;2022-10-16T01:34:25;3.95;;;2.40;;
14907;SDS011;7545;52.092;7.006;2022-10-16T01:37:12;5.60;;;2.38;;
14907;SDS011;7545;52.092;7.006;2022-10-16T01:39:41;3.53;;;2.63;;
14907;SDS011;7545;52.092;7.006;2022-10-16T01:42:18;2.90;;;2.28;;
14907;SDS011;7545;52.092;7.006;2022-10-16T01:44:55;2.70;;;2.50;;
14907;SDS011;7545;52.092;7.006;2022-10-16T01:47:23;2.80;;;2.30;;
14907;SDS011;7545;52.092;7.006;2022-10-16T01:49:50;4.55;;;2.67;;
14907;SDS011;7545;52.092;7.006;2022-10-16T01:52:19;6.10;;;4.05;;
14907;SDS011;7545;52.092;7.006;2022-10-16T01:54:48;5.80;;;3.05;;
14907;SDS011;7545;52.092;7.006;2022-10-16T01:57:17;3.33;;;2.88;;
14907;SDS011;7545;52.092;7.006;2022-10-16T01:59:46;7.43;;;2.65;;
14907;SDS011;7545;52.092;7.006;2022-10-16T02:02:15;4.93;;;3.08;;
14907;SDS011;7545;52.092;7.006;2022-10-16T02:04:54;4.35;;;2.35;;
14907;SDS011;7545;52.092;7.006;2022-10-16T02:07:29;4.05;;;3.25;;
14907;SDS011;7545;52.092;7.006;2022-10-16T02:09:55;6.00;;;2.63;;
14907;SDS011;7545;52.092;7.006;2022-10-16T02:12:23;3.28;;;2.38;;
14907;SDS011;7545;52.092;7.006;2022-10-16T02:14:52;2.90;;;2.53;;
14907;SDS011;7545;52.092;7.006;2022-10-16T02:17:18;4.90;;;3.03;;
14907;SDS011;7545;52.092;7.006;2022-10-16T02:19:44;5.53;;;2.80;;
14907;SDS011;7545;52.092;7.006;2022-10-16T02:22:17;3.42;;;2.40;;
14907;SDS011;7545;52.092;7.006;2022-10-16T02:24:54;3.60;;;2.58;;
14907;SDS011;7545;52.092;7.006;2022-10-16T02:29:54;7.00;;;2.42;;
14907;SDS011;7545;52.092;7.006;2022-10-16T02:32:48;3.47;;;2.40;;
14907;SDS011;7545;52.092;7.006;2022-10-16T02:35:15;3.88;;;2.42;;
14907;SDS011;7545;52.092;7.006;2022-10-16T02:37:43;3.70;;;2.40;;
14907;SDS011;7545;52.092;7.006;2022-10-16T02:40:11;2.80;;;2.03;;
14907;SDS011;7545;52.092;7.006;2022-10-16T02:42:38;6.93;;;2.22;;
14907;SDS011;7545;52.092;7.006;2022-10-16T02:45:05;4.28;;;2.00;;
14907;SDS011;7545;52.092;7.006;2022-10-16T02:47:32;3.38;;;1.90;;
14907;SDS011;7545;52.092;7.006;2022-10-16T02:49:58;3.95;;;1.90;;
14907;SDS011;7545;52.092;7.006;2022-10-16T02:52:24;5.95;;;2.70;;
14907;SDS011;7545;52.092;7.006;2022-10-16T02:54:49;3.03;;;2.03;;
14907;SDS011;7545;52.092;7.006;2022-10-16T02:57:15;1.92;;;1.73;;
14907;SDS011;7545;52.092;7.006;2022-10-16T02:59:40;2.60;;;1.83;;
14907;SDS011;7545;52.092;7.006;2022-10-16T03:02:06;2.45;;;1.40;;
14907;SDS011;7545;52.092;7.006;2022-10-16T03:04:32;2.33;;;1.50;;
14907;SDS011;7545;52.092;7.006;2022-10-16T03:06:57;5.80;;;2.38;;
14907;SDS011;7545;52.092;7.006;2022-10-16T03:09:23;2.65;;;1.52;;
14907;SDS011;7545;52.092;7.006;2022-10-16T03:11:48;3.45;;;1.92;;
14907;SDS011;7545;52.092;7.006;2022-10-16T03:14:14;3.28;;;1.73;;
14907;SDS011;7545;52.092;7.006;2022-10-16T03:16:39;2.65;;;1.70;;
14907;SDS011;7545;52.092;7.006;2022-10-16T03:19:05;3.22;;;1.70;;
14907;SDS011;7545;52.092;7.006;2022-10-16T03:21:31;3.28;;;1.48;;
14907;SDS011;7545;52.092;7.006;2022-10-16T03:23:56;1.80;;;1.52;;
14907;SDS011;7545;52.092;7.006;2022-10-16T03:26:22;2.60;;;1.42;;
14907;SDS011;7545;52.092;7.006;2022-10-16T03:28:47;3.30;;;2.58;;
14907;SDS011;7545;52.092;7.006;2022-10-16T03:31:13;3.42;;;1.60;;
14907;SDS011;7545;52.092;7.006;2022-10-16T03:33:39;3.97;;;1.73;;
14907;SDS011;7545;52.092;7.006;2022-10-16T03:36:04;3.60;;;2.92;;
14907;SDS011;7545;52.092;7.006;2022-10-16T03:38:30;3.17;;;1.50;;
14907;SDS011;7545;52.092;7.006;2022-10-16T03:40:56;3.65;;;1.83;;
14907;SDS011;7545;52.092;7.006;2022-10-16T03:43:21;2.47;;;1.48;;
14907;SDS011;7545;52.092;7.006;2022-10-16T03:45:47;3.40;;;1.95;;
14907;SDS011;7545;52.092;7.006;2022-10-16T03:48:12;2.00;;;1.80;;
14907;SDS011;7545;52.092;7.006;2022-10-16T03:50:38;1.73;;;1.63;;
14907;SDS011;7545;52.092;7.006;2022-10-16T03:53:03;2.65;;;1.55;;
14907;SDS011;7545;52.092;7.006;2022-10-16T03:55:29;2.15;;;1.40;;
14907;SDS011;7545;52.092;7.006;2022-10-16T03:57:55;3.97;;;1.60;;
14907;SDS011;7545;52.092;7.006;2022-10-16T04:00:20;2.55;;;1.83;;
14907;SDS011;7545;52.092;7.006;2022-10-16T04:02:46;2.72;;;2.47;;
14907;SDS011;7545;52.092;7.006;2022-10-16T04:05:11;2.30;;;1.73;;
14907;SDS011;7545;52.092;7.006;2022-10-16T04:07:37;2.10;;;1.58;;
14907;SDS011;7545;52.092;7.006;2022-10-16T04:10:03;3.45;;;1.50;;
14907;SDS011;7545;52.092;7.006;2022-10-16T04:12:29;1.40;;;1.30;;
14907;SDS011;7545;52.092;7.006;2022-10-16T04:14:55;1.70;;;1.33;;
14907;SDS011;7545;52.092;7.006;2022-10-16T04:17:20;2.50;;;1.35;;
14907;SDS011;7545;52.092;7.006;2022-10-16T04:19:46;1.65;;;1.20;;
14907;SDS011;7545;52.092;7.006;2022-10-16T04:22:11;3.55;;;1.55;;
14907;SDS011;7545;52.092;7.006;2022-10-16T04:24:37;3.00;;;1.30;;
14907;SDS011;7545;52.092;7.006;2022-10-16T04:27:02;3.15;;;1.50;;
14907;SDS011;7545;52.092;7.006;2022-10-16T04:29:28;2.08;;;1.50;;
14907;SDS011;7545;52.092;7.006;2022-10-16T04:31:54;3.17;;;1.50;;
14907;SDS011;7545;52.092;7.006;2022-10-16T04:34:19;1.83;;;1.30;;
14907;SDS011;7545;52.092;7.006;2022-10-16T04:36:48;2.78;;;1.20;;
14907;SDS011;7545;52.092;7.006;2022-10-16T04:39:14;2.85;;;1.52;;
14907;SDS011;7545;52.092;7.006;2022-10-16T04:41:40;1.92;;;1.60;;
14907;SDS011;7545;52.092;7.006;2022-10-16T04:44:06;1.60;;;1.40;;
14907;SDS011;7545;52.092;7.006;2022-10-16T04:46:31;1.30;;;1.17;;
14907;SDS011;7545;52.092;7.006;2022-10-16T04:48:57;4.78;;;2.45;;
14907;SDS011;7545;52.092;7.006;2022-10-16T04:51:22;3.58;;;1.73;;
14907;SDS011;7545;52.092;7.006;2022-10-16T04:53:48;1.73;;;1.40;;
14907;SDS011;7545;52.092;7.006;2022-10-16T04:56:14;2.53;;;1.40;;
14907;SDS011;7545;52.092;7.006;2022-10-16T04:58:40;2.28;;;1.08;;
14907;SDS011;7545;52.092;7.006;2022-10-16T05:01:06;3.13;;;1.40;;
14907;SDS011;7545;52.092;7.006;2022-10-16T05:03:31;2.38;;;1.20;;
14907;SDS011;7545;52.092;7.006;2022-10-16T05:05:57;3.33;;;1.30;;
14907;SDS011;7545;52.092;7.006;2022-10-16T05:08:23;2.45;;;1.33;;
14907;SDS011;7545;52.092;7.006;2022-10-16T05:10:48;5.45;;;1.27;;
14907;SDS011;7545;52.092;7.006;2022-10-16T05:13:14;2.22;;;1.30;;
14907;SDS011;7545;52.092;7.006;2022-10-16T05:15:40;4.00;;;1.90;;
14907;SDS011;7545;52.092;7.006;2022-10-16T05:18:05;2.83;;;1.23;;
14907;SDS011;7545;52.092;7.006;2022-10-16T05:20:31;3.05;;;1.33;;
14907;SDS011;7545;52.092;7.006;2022-10-16T05:22:57;1.38;;;1.10;;
14907;SDS011;7545;52.092;7.006;2022-10-16T05:25:25;3.08;;;1.23;;
14907;SDS011;7545;52.092;7.006;2022-10-16T05:27:51;2.83;;;1.38;;
14907;SDS011;7545;52.092;7.006;2022-10-16T05:30:17;1.73;;;1.42;;
14907;SDS011;7545;52.092;7.006;2022-10-16T05:32:49;2.28;;;1.20;;
14907;SDS011;7545;52.092;7.006;2022-10-16T05:35:16;2.30;;;0.90;;
14907;SDS011;7545;52.092;7.006;2022-10-16T05:37:42;3.63;;;1.20;;
14907;SDS011;7545;52.092;7.006;2022-10-16T05:40:08;2.00;;;1.40;;
14907;SDS011;7545;52.092;7.006;2022-10-16T05:42:34;1.67;;;1.50;;
14907;SDS011;7545;52.092;7.006;2022-10-16T05:45:00;2.05;;;1.85;;
14907;SDS011;7545;52.092;7.006;2022-10-16T05:47:26;1.38;;;1.20;;
14907;SDS011;7545;52.092;7.006;2022-10-16T05:49:52;1.63;;;1.40;;
14907;SDS011;7545;52.092;7.006;2022-10-16T05:52:18;1.92;;;1.17;;
14907;SDS011;7545;52.092;7.006;2022-10-16T05:54:43;1.88;;;1.73;;
14907;SDS011;7545;52.092;7.006;2022-10-16T05:57:09;1.63;;;1.50;;
14907;SDS011;7545;52.092;7.006;2022-10-16T05:59:35;1.58;;;1.10;;
14907;SDS011;7545;52.092;7.006;2022-10-16T06:02:00;1.08;;;0.98;;
14907;SDS011;7545;52.092;7.006;2022-10-16T06:04:26;2.53;;;1.33;;
14907;SDS011;7545;52.092;7.006;2022-10-16T06:06:51;1.33;;;1.10;;
14907;SDS011;7545;52.092;7.006;2022-10-16T06:09:17;3.08;;;1.77;;
14907;SDS011;7545;52.092;7.006;2022-10-16T06:11:43;2.97;;;1.30;;
14907;SDS011;7545;52.092;7.006;2022-10-16T06:14:08;2.05;;;1.38;;
14907;SDS011;7545;52.092;7.006;2022-10-16T06:16:35;3.65;;;1.20;;
14907;SDS011;7545;52.092;7.006;2022-10-16T06:19:01;1.75;;;1.10;;
14907;SDS011;7545;52.092;7.006;2022-10-16T06:21:31;1.17;;;1.00;;
14907;SDS011;7545;52.092;7.006;2022-10-16T06:23:57;1.70;;;1.20;;
14907;SDS011;7545;52.092;7.006;2022-10-16T06:26:24;1.85;;;1.15;;
14907;SDS011;7545;52.092;7.006;2022-10-16T06:28:53;3.60;;;1.67;;
14907;SDS011;7545;52.092;7.006;2022-10-16T06:31:20;2.50;;;1.60;;
14907;SDS011;7545;52.092;7.006;2022-10-16T06:33:49;2.80;;;1.40;;
14907;SDS011;7545;52.092;7.006;2022-10-16T06:36:16;7.55;;;1.73;;
14907;SDS011;7545;52.092;7.006;2022-10-16T06:38:42;2.20;;;1.52;;
14907;SDS011;7545;52.092;7.006;2022-10-16T06:41:09;1.88;;;1.23;;
14907;SDS011;7545;52.092;7.006;2022-10-16T06:43:37;1.40;;;1.30;;
14907;SDS011;7545;52.092;7.006;2022-10-16T06:46:03;3.75;;;1.42;;
14907;SDS011;7545;52.092;7.006;2022-10-16T06:48:30;4.30;;;1.50;;
14907;SDS011;7545;52.092;7.006;2022-10-16T06:51:00;3.72;;;1.55;;
14907;SDS011;7545;52.092;7.006;2022-10-16T06:53:28;1.30;;;1.17;;
14907;SDS011;7545;52.092;7.006;2022-10-16T06:55:55;2.22;;;1.58;;
14907;SDS011;7545;52.092;7.006;2022-10-16T06:58:22;1.90;;;1.55;;
14907;SDS011;7545;52.092;7.006;2022-10-16T07:00:47;3.72;;;1.55;;
14907;SDS011;7545;52.092;7.006;2022-10-16T07:03:14;4.30;;;1.67;;
14907;SDS011;7545;52.092;7.006;2022-10-16T07:05:42;3.15;;;1.50;;
14907;SDS011;7545;52.092;7.006;2022-10-16T07:08:08;1.90;;;1.67;;
14907;SDS011;7545;52.092;7.006;2022-10-16T07:10:34;1.52;;;1.17;;
14907;SDS011;7545;52.092;7.006;2022-10-16T07:13:00;1.80;;;1.20;;
14907;SDS011;7545;52.092;7.006;2022-10-16T07:15:26;2.55;;;1.55;;
14907;SDS011;7545;52.092;7.006;2022-10-16T07:17:51;2.00;;;1.80;;
14907;SDS011;7545;52.092;7.006;2022-10-16T07:20:17;1.70;;;1.55;;
14907;SDS011;7545;52.092;7.006;2022-10-16T07:22:44;2.83;;;1.50;;
14907;SDS011;7545;52.092;7.006;2022-10-16T07:25:09;2.45;;;1.60;;
14907;SDS011;7545;52.092;7.006;2022-10-16T07:27:36;4.30;;;1.65;;
14907;SDS011;7545;52.092;7.006;2022-10-16T07:30:02;3.90;;;1.63;;
14907;SDS011;7545;52.092;7.006;2022-10-16T07:32:29;3.63;;;1.30;;
14907;SDS011;7545;52.092;7.006;2022-10-16T07:34:55;3.28;;;2.22;;
14907;SDS011;7545;52.092;7.006;2022-10-16T07:37:21;4.43;;;1.33;;
14907;SDS011;7545;52.092;7.006;2022-10-16T07:39:46;3.33;;;1.30;;
14907;SDS011;7545;52.092;7.006;2022-10-16T07:42:12;1.58;;;1.40;;
14907;SDS011;7545;52.092;7.006;2022-10-16T07:44:38;1.48;;;1.38;;
14907;SDS011;7545;52.092;7.006;2022-10-16T07:47:03;4.03;;;1.40;;
14907;SDS011;7545;52.092;7.006;2022-10-16T07:49:29;4.10;;;1.70;;
14907;SDS011;7545;52.092;7.006;2022-10-16T07:51:54;2.10;;;1.58;;
14907;SDS011;7545;52.092;7.006;2022-10-16T07:54:20;2.38;;;1.25;;
14907;SDS011;7545;52.092;7.006;2022-10-16T07:56:45;3.80;;;1.75;;
14907;SDS011;7545;52.092;7.006;2022-10-16T07:59:11;1.77;;;1.27;;
14907;SDS011;7545;52.092;7.006;2022-10-16T08:01:37;2.95;;;1.40;;
14907;SDS011;7545;52.092;7.006;2022-10-16T08:04:02;2.70;;;1.70;;
14907;SDS011;7545;52.092;7.006;2022-10-16T08:06:28;3.60;;;1.30;;
14907;SDS011;7545;52.092;7.006;2022-10-16T08:08:54;1.60;;;1.27;;
14907;SDS011;7545;52.092;7.006;2022-10-16T08:11:21;3.05;;;1.58;;
14907;SDS011;7545;52.092;7.006;2022-10-16T08:13:46;2.90;;;1.35;;
14907;SDS011;7545;52.092;7.006;2022-10-16T08:16:12;2.85;;;1.40;;
14907;SDS011;7545;52.092;7.006;2022-10-16T08:18:38;1.52;;;1.10;;
14907;SDS011;7545;52.092;7.006;2022-10-16T08:21:05;2.17;;;1.30;;
14907;SDS011;7545;52.092;7.006;2022-10-16T08:23:32;2.58;;;1.13;;
14907;SDS011;7545;52.092;7.006;2022-10-16T08:26:03;2.67;;;1.50;;
14907;SDS011;7545;52.092;7.006;2022-10-16T08:28:30;4.32;;;1.98;;
14907;SDS011;7545;52.092;7.006;2022-10-16T08:31:03;1.55;;;1.20;;
14907;SDS011;7545;52.092;7.006;2022-10-16T08:33:40;2.20;;;1.20;;
14907;SDS011;7545;52.092;7.006;2022-10-16T08:36:08;2.17;;;1.23;;
14907;SDS011;7545;52.092;7.006;2022-10-16T08:38:35;3.75;;;1.70;;
14907;SDS011;7545;52.092;7.006;2022-10-16T08:41:25;2.72;;;1.88;;
14907;SDS011;7545;52.092;7.006;2022-10-16T08:49:54;2.08;;;1.00;;
14907;SDS011;7545;52.092;7.006;2022-10-16T08:52:29;2.38;;;0.98;;
14907;SDS011;7545;52.092;7.006;2022-10-16T08:54:57;1.48;;;1.20;;
14907;SDS011;7545;52.092;7.006;2022-10-16T08:57:24;2.92;;;1.00;;
14907;SDS011;7545;52.092;7.006;2022-10-16T08:59:52;1.90;;;0.80;;
14907;SDS011;7545;52.092;7.006;2022-10-16T09:02:24;2.28;;;0.70;;
14907;SDS011;7545;52.092;7.006;2022-10-16T09:07:30;3.47;;;1.00;;
14907;SDS011;7545;52.092;7.006;2022-10-16T09:21:48;2.00;;;1.10;;
14907;SDS011;7545;52.092;7.006;2022-10-16T09:24:25;1.83;;;1.42;;
14907;SDS011;7545;52.092;7.006;2022-10-16T09:26:51;3.70;;;1.45;;
14907;SDS011;7545;52.092;7.006;2022-10-16T09:29:18;4.38;;;1.40;;
14907;SDS011;7545;52.092;7.006;2022-10-16T09:31:51;4.13;;;1.25;;
14907;SDS011;7545;52.092;7.006;2022-10-16T09:34:22;2.30;;;1.30;;
14907;SDS011;7545;52.092;7.006;2022-10-16T09:36:55;4.70;;;1.80;;
14907;SDS011;7545;52.092;7.006;2022-10-16T09:39:23;4.50;;;1.60;;
14907;SDS011;7545;52.092;7.006;2022-10-16T09:41:49;3.05;;;1.50;;
14907;SDS011;7545;52.092;7.006;2022-10-16T09:44:22;3.15;;;2.08;;
14907;SDS011;7545;52.092;7.006;2022-10-16T09:49:53;9.18;;;3.42;;
14907;SDS011;7545;52.092;7.006;2022-10-16T09:52:20;3.95;;;2.60;;
14907;SDS011;7545;52.092;7.006;2022-10-16T09:54:50;6.35;;;3.15;;
14907;SDS011;7545;52.092;7.006;2022-10-16T09:57:24;9.63;;;4.05;;
14907;SDS011;7545;52.092;7.006;2022-10-16T09:59:53;10.40;;;4.35;;
14907;SDS011;7545;52.092;7.006;2022-10-16T10:02:25;7.68;;;4.43;;
14907;SDS011;7545;52.092;7.006;2022-10-16T10:04:58;9.38;;;4.75;;
14907;SDS011;7545;52.092;7.006;2022-10-16T10:07:25;7.22;;;4.20;;
14907;SDS011;7545;52.092;7.006;2022-10-16T10:09:53;6.95;;;4.05;;
14907;SDS011;7545;52.092;7.006;2022-10-16T10:12:23;5.95;;;3.90;;
14907;SDS011;7545;52.092;7.006;2022-10-16T10:14:53;6.82;;;4.18;;
14907;SDS011;7545;52.092;7.006;2022-10-16T10:17:22;5.82;;;3.80;;
14907;SDS011;7545;52.092;7.006;2022-10-16T10:19:50;6.40;;;2.92;;
14907;SDS011;7545;52.092;7.006;2022-10-16T10:22:24;4.25;;;2.63;;
14907;SDS011;7545;52.092;7.006;2022-10-16T10:27:32;5.22;;;2.95;;
14907;SDS011;7545;52.092;7.006;2022-10-16T10:36:25;2.58;;;2.30;;
14907;SDS011;7545;52.092;7.006;2022-10-16T10:38:57;4.28;;;2.55;;
14907;SDS011;7545;52.092;7.006;2022-10-16T10:44:43;3.72;;;2.40;;
14907;SDS011;7545;52.092;7.006;2022-10-16T10:55:24;3.92;;;2.10;;
14907;SDS011;7545;52.092;7.006;2022-10-16T10:58:21;4.15;;;2.65;;
14907;SDS011;7545;52.092;7.006;2022-10-16T11:01:08;9.55;;;2.20;;
14907;SDS011;7545;52.092;7.006;2022-10-16T11:06:21;2.53;;;1.50;;
14907;SDS011;7545;52.092;7.006;2022-10-16T11:08:53;5.28;;;1.75;;
14907;SDS011;7545;52.092;7.006;2022-10-16T11:11:32;3.53;;;1.80;;
14907;SDS011;7545;52.092;7.006;2022-10-16T11:14:11;7.30;;;2.00;;
14907;SDS011;7545;52.092;7.006;2022-10-16T11:16:43;3.83;;;1.52;;
14907;SDS011;7545;52.092;7.006;2022-10-16T11:19:12;7.38;;;1.98;;
14907;SDS011;7545;52.092;7.006;2022-10-16T11:21:49;4.80;;;1.77;;
14907;SDS011;7545;52.092;7.006;2022-10-16T11:24:27;4.60;;;1.48;;
14907;SDS011;7545;52.092;7.006;2022-10-16T11:26:59;8.35;;;2.42;;
14907;SDS011;7545;52.092;7.006;2022-10-16T11:29:32;3.30;;;1.50;;
14907;SDS011;7545;52.092;7.006;2022-10-16T11:32:03;4.68;;;2.00;;
14907;SDS011;7545;52.092;7.006;2022-10-16T11:34:43;5.32;;;2.00;;
14907;SDS011;7545;52.092;7.006;2022-10-16T11:37:14;3.65;;;1.33;;
14907;SDS011;7545;52.092;7.006;2022-10-16T11:39:45;5.68;;;1.55;;
14907;SDS011;7545;52.092;7.006;2022-10-16T11:42:19;2.42;;;1.45;;
14907;SDS011;7545;52.092;7.006;2022-10-16T11:47:44;7.75;;;3.08;;
14907;SDS011;7545;52.092;7.006;2022-10-16T11:55:23;7.35;;;1.95;;
14907;SDS011;7545;52.092;7.006;2022-10-16T11:57:57;5.97;;;1.52;;
14907;SDS011;7545;52.092;7.006;2022-10-16T12:08:32;2.70;;;1.13;;
14907;SDS011;7545;52.092;7.006;2022-10-16T12:11:20;8.15;;;1.27;;
14907;SDS011;7545;52.092;7.006;2022-10-16T12:13:47;6.03;;;1.35;;
14907;SDS011;7545;52.092;7.006;2022-10-16T12:18:42;5.90;;;1.33;;
14907;SDS011;7545;52.092;7.006;2022-10-16T12:21:10;4.10;;;0.82;;
14907;SDS011;7545;52.092;7.006;2022-10-16T12:26:13;4.03;;;1.33;;
14907;SDS011;7545;52.092;7.006;2022-10-16T12:28:48;5.22;;;1.55;;
14907;SDS011;7545;52.092;7.006;2022-10-16T12:31:16;5.90;;;1.30;;
14907;SDS011;7545;52.092;7.006;2022-10-16T12:33:53;3.63;;;1.35;;
14907;SDS011;7545;52.092;7.006;2022-10-16T12:36:29;5.70;;;2.20;;
14907;SDS011;7545;52.092;7.006;2022-10-16T12:38:57;2.88;;;1.05;;
14907;SDS011;7545;52.092;7.006;2022-10-16T12:41:25;11.15;;;2.30;;
14907;SDS011;7545;52.092;7.006;2022-10-16T12:43:52;4.47;;;1.50;;
14907;SDS011;7545;52.092;7.006;2022-10-16T12:46:20;5.13;;;1.50;;
14907;SDS011;7545;52.092;7.006;2022-10-16T12:48:49;4.43;;;2.20;;
14907;SDS011;7545;52.092;7.006;2022-10-16T12:51:33;7.10;;;2.30;;
14907;SDS011;7545;52.092;7.006;2022-10-16T13:10:06;8.27;;;1.40;;
14907;SDS011;7545;52.092;7.006;2022-10-16T13:26:17;3.88;;;1.45;;
14907;SDS011;7545;52.092;7.006;2022-10-16T13:28:45;3.28;;;1.42;;
14907;SDS011;7545;52.092;7.006;2022-10-16T13:31:13;3.33;;;1.13;;
14907;SDS011;7545;52.092;7.006;2022-10-16T13:33:45;5.18;;;1.30;;
14907;SDS011;7545;52.092;7.006;2022-10-16T13:36:26;6.00;;;1.10;;
14907;SDS011;7545;52.092;7.006;2022-10-16T13:39:21;6.40;;;1.95;;
14907;SDS011;7545;52.092;7.006;2022-10-16T13:42:10;7.75;;;1.55;;
14907;SDS011;7545;52.092;7.006;2022-10-16T13:44:51;6.60;;;1.27;;
14907;SDS011;7545;52.092;7.006;2022-10-16T13:47:19;4.18;;;1.40;;
14907;SDS011;7545;52.092;7.006;2022-10-16T13:50:02;4.05;;;1.05;;
14907;SDS011;7545;52.092;7.006;2022-10-16T13:52:30;3.83;;;1.42;;
14907;SDS011;7545;52.092;7.006;2022-10-16T13:54:56;6.10;;;1.40;;
14907;SDS011;7545;52.092;7.006;2022-10-16T13:57:25;4.00;;;1.23;;
14907;SDS011;7545;52.092;7.006;2022-10-16T13:59:50;6.00;;;1.33;;
14907;SDS011;7545;52.092;7.006;2022-10-16T14:04:56;5.93;;;1.70;;
14907;SDS011;7545;52.092;7.006;2022-10-16T14:07:27;3.30;;;1.17;;
14907;SDS011;7545;52.092;7.006;2022-10-16T14:09:55;2.80;;;0.93;;
14907;SDS011;7545;52.092;7.006;2022-10-16T14:12:22;5.57;;;1.40;;
14907;SDS011;7545;52.092;7.006;2022-10-16T14:14:50;8.15;;;1.95;;
14907;SDS011;7545;52.092;7.006;2022-10-16T14:17:28;2.38;;;1.05;;
14907;SDS011;7545;52.092;7.006;2022-10-16T14:19:56;4.70;;;1.35;;
14907;SDS011;7545;52.092;7.006;2022-10-16T14:25:00;3.78;;;1.20;;
14907;SDS011;7545;52.092;7.006;2022-10-16T14:27:38;4.45;;;1.33;;
14907;SDS011;7545;52.092;7.006;2022-10-16T14:32:32;4.82;;;1.45;;
14907;SDS011;7545;52.092;7.006;2022-10-16T14:34:58;3.75;;;1.48;;
14907;SDS011;7545;52.092;7.006;2022-10-16T14:37:24;4.03;;;1.33;;
14907;SDS011;7545;52.092;7.006;2022-10-16T14:39:52;3.90;;;1.08;;
14907;SDS011;7545;52.092;7.006;2022-10-16T14:42:20;4.40;;;1.55;;
14907;SDS011;7545;52.092;7.006;2022-10-16T14:44:49;8.95;;;1.30;;
14907;SDS011;7545;52.092;7.006;2022-10-16T14:47:20;3.05;;;1.13;;
14907;SDS011;7545;52.092;7.006;2022-10-16T14:49:51;4.45;;;1.42;;
14907;SDS011;7545;52.092;7.006;2022-10-16T14:52:20;2.60;;;1.00;;
14907;SDS011;7545;52.092;7.006;2022-10-16T14:54:48;3.28;;;0.93;;
14907;SDS011;7545;52.092;7.006;2022-10-16T14:57:18;5.13;;;1.30;;
14907;SDS011;7545;52.092;7.006;2022-10-16T14:59:46;3.67;;;0.93;;
14907;SDS011;7545;52.092;7.006;2022-10-16T15:02:32;6.15;;;1.05;;
14907;SDS011;7545;52.092;7.006;2022-10-16T15:05:05;3.08;;;1.10;;
14907;SDS011;7545;52.092;7.006;2022-10-16T15:07:37;5.18;;;0.90;;
14907;SDS011;7545;52.092;7.006;2022-10-16T15:10:03;6.03;;;1.85;;
14907;SDS011;7545;52.092;7.006;2022-10-16T15:12:28;7.03;;;1.60;;
14907;SDS011;7545;52.092;7.006;2022-10-16T15:14:54;2.97;;;1.30;;
14907;SDS011;7545;52.092;7.006;2022-10-16T15:17:20;6.50;;;1.52;;
14907;SDS011;7545;52.092;7.006;2022-10-16T15:19:45;4.72;;;0.98;;
14907;SDS011;7545;52.092;7.006;2022-10-16T15:22:11;2.90;;;1.02;;
14907;SDS011;7545;52.092;7.006;2022-10-16T15:24:37;4.78;;;1.33;;
14907;SDS011;7545;52.092;7.006;2022-10-16T15:27:02;5.07;;;1.00;;
14907;SDS011;7545;52.092;7.006;2022-10-16T15:29:28;6.65;;;1.40;;
14907;SDS011;7545;52.092;7.006;2022-10-16T15:31:54;2.85;;;1.63;;
14907;SDS011;7545;52.092;7.006;2022-10-16T15:34:19;4.05;;;1.08;;
14907;SDS011;7545;52.092;7.006;2022-10-16T15:36:45;3.03;;;1.17;;
14907;SDS011;7545;52.092;7.006;2022-10-16T15:39:15;5.80;;;1.50;;
14907;SDS011;7545;52.092;7.006;2022-10-16T15:41:41;7.30;;;1.80;;
14907;SDS011;7545;52.092;7.006;2022-10-16T15:44:07;4.63;;;1.45;;
14907;SDS011;7545;52.092;7.006;2022-10-16T15:46:33;2.85;;;0.95;;
14907;SDS011;7545;52.092;7.006;2022-10-16T15:48:59;6.10;;;1.52;;
14907;SDS011;7545;52.092;7.006;2022-10-16T15:51:26;3.72;;;1.77;;
14907;SDS011;7545;52.092;7.006;2022-10-16T15:53:55;4.45;;;1.50;;
14907;SDS011;7545;52.092;7.006;2022-10-16T15:56:21;2.33;;;1.30;;
14907;SDS011;7545;52.092;7.006;2022-10-16T15:58:49;3.00;;;1.27;;
14907;SDS011;7545;52.092;7.006;2022-10-16T16:01:14;3.65;;;1.63;;
14907;SDS011;7545;52.092;7.006;2022-10-16T16:03:41;4.95;;;1.58;;
14907;SDS011;7545;52.092;7.006;2022-10-16T16:06:08;5.78;;;2.10;;
14907;SDS011;7545;52.092;7.006;2022-10-16T16:08:35;4.28;;;1.35;;
14907;SDS011;7545;52.092;7.006;2022-10-16T16:11:02;4.40;;;1.58;;
14907;SDS011;7545;52.092;7.006;2022-10-16T16:13:28;2.55;;;1.20;;
14907;SDS011;7545;52.092;7.006;2022-10-16T16:15:53;5.53;;;1.23;;
14907;SDS011;7545;52.092;7.006;2022-10-16T16:18:19;3.67;;;1.95;;
14907;SDS011;7545;52.092;7.006;2022-10-16T16:20:45;3.72;;;1.15;;
14907;SDS011;7545;52.092;7.006;2022-10-16T16:23:11;4.18;;;1.63;;
14907;SDS011;7545;52.092;7.006;2022-10-16T16:25:37;5.22;;;1.50;;
14907;SDS011;7545;52.092;7.006;2022-10-16T16:28:02;2.55;;;1.33;;
14907;SDS011;7545;52.092;7.006;2022-10-16T16:30:28;6.05;;;1.67;;
14907;SDS011;7545;52.092;7.006;2022-10-16T16:32:53;3.10;;;1.40;;
14907;SDS011;7545;52.092;7.006;2022-10-16T16:35:19;3.13;;;1.27;;
14907;SDS011;7545;52.092;7.006;2022-10-16T16:37:46;6.63;;;1.45;;
14907;SDS011;7545;52.092;7.006;2022-10-16T16:40:12;5.82;;;1.48;;
14907;SDS011;7545;52.092;7.006;2022-10-16T16:42:37;7.13;;;1.52;;
14907;SDS011;7545;52.092;7.006;2022-10-16T16:45:03;4.78;;;1.73;;
14907;SDS011;7545;52.092;7.006;2022-10-16T16:47:29;4.40;;;1.08;;
14907;SDS011;7545;52.092;7.006;2022-10-16T16:49:54;9.02;;;1.45;;
14907;SDS011;7545;52.092;7.006;2022-10-16T16:52:20;4.32;;;1.58;;
14907;SDS011;7545;52.092;7.006;2022-10-16T16:54:47;3.53;;;1.35;;
14907;SDS011;7545;52.092;7.006;2022-10-16T16:57:17;3.10;;;1.42;;
14907;SDS011;7545;52.092;7.006;2022-10-16T16:59:43;4.22;;;1.95;;
14907;SDS011;7545;52.092;7.006;2022-10-16T17:02:09;8.45;;;5.88;;
14907;SDS011;7545;52.092;7.006;2022-10-16T17:04:34;5.57;;;3.60;;
14907;SDS011;7545;52.092;7.006;2022-10-16T17:07:00;4.88;;;2.30;;
14907;SDS011;7545;52.092;7.006;2022-10-16T17:09:26;5.82;;;2.00;;
14907;SDS011;7545;52.092;7.006;2022-10-16T17:11:51;15.43;;;7.10;;
14907;SDS011;7545;52.092;7.006;2022-10-16T17:14:17;25.55;;;14.77;;
14907;SDS011;7545;52.092;7.006;2022-10-16T17:16:43;9.48;;;4.85;;